Terminal Aerodrome Forecast
Issued by NWS

Home | Current Version | Previous Version | Text Only | Print | Product List | Glossary On
Versions: 1 2 3 4 5 6 7 8 9 10 11 12 13 14 15 16 17 18 19 20
000
FTUS43 KFGF 212112 AAB
TAFDVL
TAF AMD
KDVL 212112Z 2121/2218 30012KT P6SM SCT021
      TEMPO 2121/2123 -SN BKN021
     FM220100 VRB06KT P6SM SCT200
     FM221300 18009KT P6SM BKN110=

USA.gov is the U.S. government's official web portal to all federal, state and local government web resources and services.